Date,TemperatureHighF,TemperatureAvgF,TemperatureLowF,DewpointHighF,DewpointAvgF,DewpointLowF,HumidityHigh,HumidityAvg,HumidityLow,PressureMaxIn,PressureMinIn,WindSpeedMaxMPH,WindSpeedAvgMPH,GustSpeedMaxMPH,PrecipitationSumIn
2013-1-1,28,21,10,25,13,1,91,72,62,29.93,29.74,18,8,29,0.00
2013-1-2,18,11,-1,14,5,-5,86,75,58,30.20,29.92,19,4,22,0.00
2013-1-3,20,11,-2,100,3,-13,89,65,27,30.21,30.05,13,3,23,0.00
2013-1-4,29,26,20,21,20,17,91,79,71,30.04,29.85,20,6,42,0.00
2013-1-5,31,26,18,23,19,14,86,75,59,30.27,29.85,16,4,24,0.00
2013-1-6,32,23,18,28,19,14,93,70,79,30.21,29.97,12,2,22,0.00
2013-1-7,32,20,14,29,16,11,92,68,55,30.41,30.01,9,2,19,0.00
2013-1-8,37,28,22,22,17,16,82,50,46,30.41,30.29,19,4,24,0.00
2013-1-9,41,28,20,33,21,17,89,59,50,30.39,30.04,19,2,31,0.01
2013-1-10,36,27,27,30,19,21,88,56,57,30.57,30.09,20,4,33,0.00
2013-1-11,33,24,22,32,20,17,97,67,64,30.57,30.21,8,1,13,0.04
2013-1-12,41,28,33,40,27,32,98,76,97,30.23,30.15,2,0,4,0.07
2013-1-13,57,34,33,51,33,33,99,75,80,30.17,29.99,15,1,21,0.00
2013-1-14,53,32,29,50,28,22,98,71,68,30.30,29.88,16,2,26,0.00
2013-1-15,30,21,24,22,16,20,89,59,70,30.36,30.22,7,1,11,0.00
2013-1-16,32,20,24,30,18,21,97,66,86,30.27,29.84,8,1,20,0.00
2013-1-17,31,17,16,26,12,4,86,51,56,30.14,29.85,22,2,23,0.00
2013-1-18,16,8,7,6,0,-8,73,36,47,30.44,30.08,22,3,27,0.00
2013-1-19,40,35,15,24,20,5,66,56,44,30.34,29.84,14,2,21,0.00
2013-1-20,42,36,31,31,25,15,93,67,47,29.85,29.55,20,6,33,0.00
2013-1-25,9,8,8,5,4,4,85,83,81,30.13,30.11,0,0,0,0.00
2013-1-26,12,9,6,100,-1,-10,85,59,36,30.31,30.09,17,5,25,0.00
2013-1-27,19,16,7,100,0,-3,73,48,40,30.52,30.30,17,3,21,0.00
2013-1-28,21,18,12,19,14,-1,94,87,52,30.50,30.06,6,0,7,0.00
2013-1-29,32,28,21,31,27,19,97,92,93,30.23,30.06,7,0,9,0.01
2013-1-30,55,47,32,53,46,31,99,97,93,30.13,29.38,18,1,29,0.27
2013-1-31,48,27,20,48,20,12,98,75,64,29.58,29.07,22,6,35,0.11
2013-2-1,20,16,11,13,8,3,86,70,59,30.09,29.58,21,6,34,0.00
2013-2-2,20,16,10,12,7,2,87,67,51,30.23,30.07,12,2,21,0.00
2013-2-3,23,18,12,12,10,7,87,70,55,30.08,29.79,4,0,8,0.15
2013-2-4,17,14,11,11,6,3,81,69,58,29.96,29.81,16,5,23,0.00
2013-2-5,25,20,11,15,11,6,86,67,53,30.04,29.95,6,0,8,0.00
2013-2-6,27,22,15,21,9,1,84,59,42,30.32,30.00,16,7,23,0.00
2013-2-7,23,20,12,6,4,0,58,49,43,30.54,30.47,6,0,12,0.00
2013-2-8,21,17,14,18,15,12,92,90,86,30.31,29.83,10,2,14,0.56
2013-2-9,15,11,9,10,3,-3,88,68,54,30.33,29.93,27,9,36,0.00
2013-2-10,36,26,17,8,2,-6,68,37,16,30.52,30.34,7,1,10,0.80
2013-2-11,42,34,25,40,33,23,98,94,87,30.09,29.67,12,2,16,0.12
2013-2-12,31,29,27,27,25,21,89,85,79,29.90,29.66,28,8,39,0.00
2013-2-13,29,26,22,22,20,17,86,76,67,29.87,29.77,6,0,9,0.00
2013-2-14,36,30,25,22,21,19,80,68,54,30.00,29.92,6,1,15,0.00
2013-2-15,42,36,30,28,25,20,70,62,54,29.98,29.93,16,3,27,0.01
2013-2-16,27,24,18,19,14,6,79,67,55,29.94,29.82,11,3,13,0.00
2013-2-17,15,11,6,4,0,-2,74,62,52,29.80,29.56,27,11,40,0.00
2013-2-18,21,16,9,-2,-4,-5,53,40,33,30.14,30.08,26,10,32,0.00
2013-2-19,34,32,27,32,25,10,97,77,46,30.10,29.61,8,2,12,0.13
2013-2-20,21,19,17,17,14,11,89,80,72,29.83,29.64,20,8,35,0.00
2013-2-21,22,19,14,17,12,7,89,73,64,30.34,29.88,19,7,31,0.00
2013-2-22,34,30,26,20,19,18,76,63,54,30.45,30.31,5,1,10,0.00
2013-2-23,29,28,26,28,27,24,96,95,92,30.20,29.95,5,0,9,0.00
2013-2-24,34,31,27,32,29,25,95,92,90,29.94,29.77,8,1,11,0.00
2013-2-25,32,28,23,27,25,21,95,88,82,30.29,30.12,6,1,8,0.00
2013-2-26,33,31,28,29,27,24,92,84,77,30.36,30.18,7,1,13,0.00
2013-2-27,33,31,29,32,30,28,97,97,96,29.91,29.67,6,0,8,0.00
2013-2-28,36,33,32,35,32,31,97,96,93,29.64,29.58,8,0,13,0.00
2013-3-1,34,30,26,28,25,22,88,82,71,29.75,29.65,14,4,19,0.00
2013-3-2,32,27,22,26,23,19,92,83,77,29.74,29.70,12,4,19,0.00
2013-3-3,28,25,21,22,21,18,89,83,78,29.71,29.65,11,3,21,0.00
2013-3-4,29,25,21,22,20,18,89,79,70,29.87,29.69,19,7,29,0.00
2013-3-5,37,32,28,27,26,22,84,77,65,30.13,30.04,11,1,16,0.00
2013-3-6,30,29,26,28,26,23,94,88,80,30.19,30.12,11,3,16,0.00
2013-3-7,31,28,26,27,25,23,94,88,77,30.17,30.09,12,4,15,0.00
2013-3-8,35,33,29,32,26,22,96,77,64,30.28,30.08,18,5,21,0.65
2013-3-9,50,42,31,24,16,7,66,39,18,30.35,30.27,9,2,15,0.19
2013-3-10,50,43,31,29,25,19,70,50,34,30.39,30.26,12,2,12,0.00
2013-3-11,51,43,37,36,28,18,90,60,29,30.27,30.08,10,2,21,0.00
2013-3-12,47,43,34,46,42,33,98,96,90,30.08,29.73,9,2,21,0.97
2013-3-13,37,34,28,33,23,16,94,64,47,29.83,29.77,15,3,20,0.00
2013-3-14,28,18,14,24,11,7,86,75,63,29.90,29.75,18,5,23,0.00
2013-3-15,29,26,15,25,19,2,87,73,35,29.90,29.69,15,4,26,0.03
2013-3-16,30,26,21,20,12,6,85,56,38,29.92,29.76,14,1,14,0.00
2013-3-17,26,22,14,15,4,0,77,47,35,30.35,29.92,18,4,27,0.00
2013-3-18,31,26,12,20,4,-3,91,43,25,30.48,30.22,7,2,13,0.07
2013-3-19,28,26,21,27,25,19,95,93,91,30.21,29.76,8,0,13,0.49
2013-3-20,26,24,20,21,19,16,91,81,74,29.84,29.75,14,4,22,0.01
2013-3-21,31,26,21,18,14,10,83,60,44,29.84,29.67,12,3,13,0.00
2013-3-22,29,25,20,22,19,14,86,78,64,29.80,29.69,18,5,23,0.00
2013-3-23,33,29,23,19,18,16,81,62,53,29.85,29.73,22,6,31,0.00
2013-3-24,36,32,26,23,21,19,76,66,57,29.89,29.80,11,2,15,0.01
2013-3-25,35,33,30,26,24,23,77,69,64,29.75,29.58,7,1,12,0.00
2013-3-26,38,33,28,26,21,18,86,62,46,29.86,29.71,11,3,17,0.00
2013-3-27,43,37,34,32,28,23,89,68,47,29.94,29.85,14,3,19,0.21
2013-3-28,42,38,34,32,30,28,85,73,61,30.10,29.99,10,2,15,0.00
2013-3-29,43,39,34,33,30,28,86,73,56,30.10,30.04,13,3,15,0.21
2013-3-30,47,42,33,28,20,16,68,41,30,30.13,30.07,11,3,16,0.00
2013-3-31,50,42,34,35,27,21,96,59,34,30.09,29.75,15,3,18,1.77
2013-4-1,49,34,24,39,25,11,90,70,46,29.82,29.56,26,6,28,0.10
2013-4-2,26,24,22,18,14,10,80,65,52,29.99,29.86,26,8,34,0.00
2013-4-3,34,28,22,14,12,6,66,50,34,30.22,30.01,21,8,28,0.00
2013-4-4,46,40,28,20,16,10,57,38,30,30.34,30.01,15,2,20,0.00
2013-4-5,46,40,30,25,21,16,68,47,33,29.92,29.74,14,4,23,0.00
2013-4-6,38,31,22,18,8,3,65,40,24,30.36,30.18,14,2,20,0.00
2013-4-7,50,42,32,35,28,18,85,61,34,30.25,29.99,17,3,25,0.00
2013-4-8,59,49,38,34,31,26,81,52,31,30.11,30.05,10,1,13,0.00
2013-4-9,54,49,42,46,41,37,86,75,62,30.06,29.89,16,3,29,0.00
2013-4-10,54,49,43,48,46,42,98,89,74,30.03,29.89,6,0,11,1.01
2013-4-11,40,35,31,33,30,25,92,82,70,30.18,29.99,6,1,11,0.08
2013-4-12,30,29,27,29,28,26,96,96,95,30.12,29.89,7,1,11,0.66
2013-4-13,43,39,33,36,34,30,97,84,69,29.98,29.88,7,1,14,0.01
2013-4-14,39,36,31,31,27,24,82,69,61,30.27,30.01,14,2,20,0.02
2013-4-15,54,46,35,33,31,27,78,56,43,30.42,30.32,10,1,12,0.00
2013-4-16,58,52,42,52,47,33,96,82,58,30.32,30.07,17,3,29,0.64
2013-4-17,54,48,36,34,31,28,79,54,37,30.39,30.22,11,2,15,0.02
2013-4-18,55,50,43,43,34,28,88,55,42,30.41,30.13,14,3,21,0.00
2013-4-19,64,60,47,59,56,44,96,87,72,29.93,29.58,14,3,24,0.47
2013-4-20,44,39,29,35,27,18,85,62,50,30.26,29.76,16,6,28,0.06
2013-4-21,44,37,29,19,15,7,66,41,23,30.72,30.55,12,2,18,0.00
2013-4-22,49,42,32,27,22,16,80,47,31,30.78,30.60,13,3,18,0.00
2013-4-23,38,35,31,36,33,28,95,91,86,30.49,30.23,6,0,6,0.00
2013-4-24,71,64,50,50,41,23,79,46,20,30.06,29.75,15,2,19,0.00
2013-4-25,51,44,36,32,28,22,73,54,35,30.31,30.04,12,2,26,0.51
2013-4-26,54,48,39,34,29,24,66,47,35,30.46,30.39,7,1,13,0.00
2013-4-27,60,54,42,35,28,20,66,38,23,30.43,30.31,8,1,12,0.00
2013-4-28,66,59,48,38,35,28,60,41,31,30.32,30.17,9,2,14,0.00
2013-4-29,60,54,48,41,37,27,63,53,42,30.26,30.19,11,2,19,0.00
2013-4-30,67,60,47,38,34,29,58,39,31,30.34,30.27,7,1,12,0.00
2013-5-1,70,63,49,39,29,19,67,30,15,30.47,30.41,6,1,10,0.00
2013-5-2,75,66,49,41,36,29,57,35,25,30.45,30.32,7,1,13,0.00
2013-5-3,63,56,45,42,38,32,84,52,36,30.48,30.38,7,1,11,0.00
2013-5-4,68,61,45,42,35,26,55,39,26,30.35,30.24,7,1,11,0.00
2013-5-5,68,60,46,35,29,16,65,32,14,30.28,30.20,6,0,9,0.00
2013-5-6,71,55,36,42,31,18,88,49,15,30.25,30.13,11,1,12,0.08
2013-5-7,75,60,43,51,42,32,95,57,23,30.17,30.08,7,0,10,0.00
2013-5-8,65,57,49,58,54,47,98,90,70,30.18,30.04,6,1,11,0.00
2013-5-9,64,56,51,56,53,50,98,90,65,30.04,29.88,5,0,9,0.00
2013-5-10,71,61,49,59,52,46,98,73,43,29.98,29.87,6,0,11,0.00
2013-5-11,61,59,54,60,56,51,97,90,75,29.87,29.67,8,1,15,0.00
2013-5-12,58,49,39,52,39,26,94,69,40,29.83,29.62,14,2,21,0.00
2013-5-13,43,38,35,30,28,25,76,65,49,30.11,29.82,12,3,23,0.00
2013-5-14,49,41,33,31,28,25,86,59,43,30.12,30.05,8,2,14,0.00
2013-5-15,56,44,29,50,37,26,97,81,39,30.11,29.72,13,1,22,0.00
2013-5-16,70,39,52,100,60,36,86,36,32,29.77,29.71,18,2,23,0.00
2013-5-17,-200,0,200,100,100,100,0,0,100,0.00,40.00,0,0,0,0.00
2013-5-18,-200,0,200,100,100,100,0,0,100,0.00,40.00,0,0,0,0.00
2013-5-19,-200,0,200,100,100,100,0,0,100,0.00,40.00,0,0,0,0.00
2013-5-20,-200,0,200,100,100,100,0,0,100,0.00,40.00,0,0,0,0.00
2013-5-21,-200,0,200,100,100,100,0,0,100,0.00,40.00,0,0,0,0.00
2013-5-22,-200,0,200,100,100,100,0,0,100,0.00,40.00,0,0,0,0.00
2013-5-23,-200,0,200,100,100,100,0,0,100,0.00,40.00,0,0,0,0.00
2013-5-24,-200,0,200,100,100,100,0,0,100,0.00,40.00,0,0,0,0.00
2013-5-25,-200,0,200,100,100,100,0,0,100,0.00,40.00,0,0,0,0.00
2013-5-26,-200,0,200,100,100,100,0,0,100,0.00,40.00,0,0,0,0.00
2013-5-27,-200,0,200,100,100,100,0,0,100,0.00,40.00,0,0,0,0.00
2013-5-28,-200,0,200,100,100,100,0,0,100,0.00,40.00,0,0,0,0.00
2013-5-29,-200,0,200,100,100,100,0,0,100,0.00,40.00,0,0,0,0.00
2013-5-30,-200,0,200,100,100,100,0,0,100,0.00,40.00,0,0,0,0.00
2013-5-31,-200,0,200,100,100,100,0,0,100,0.00,40.00,0,0,0,0.00
2013-6-1,-200,0,200,100,100,100,0,0,100,0.00,40.00,0,0,0,0.00
2013-6-2,-200,0,200,100,100,100,0,0,100,0.00,40.00,0,0,0,0.00
2013-6-3,-200,0,200,100,100,100,0,0,100,0.00,40.00,0,0,0,0.00
2013-6-4,-200,0,200,100,100,100,0,0,100,0.00,40.00,0,0,0,0.00
2013-6-5,-200,0,200,100,100,100,0,0,100,0.00,40.00,0,0,0,0.00
2013-6-6,-200,0,200,100,100,100,0,0,100,0.00,40.00,0,0,0,0.00
2013-6-7,-200,0,200,100,100,100,0,0,100,0.00,40.00,0,0,0,0.00
2013-6-8,-200,0,200,100,100,100,0,0,100,0.00,40.00,0,0,0,0.00
2013-6-9,-200,0,200,100,100,100,0,0,100,0.00,40.00,0,0,0,0.00
2013-6-10,-200,0,200,100,100,100,0,0,100,0.00,40.00,0,0,0,0.00
2013-6-11,-200,0,200,100,100,100,0,0,100,0.00,40.00,0,0,0,0.00
2013-6-12,-200,0,200,100,100,100,0,0,100,0.00,40.00,0,0,0,0.00
2013-6-13,-200,0,200,100,100,100,0,0,100,0.00,40.00,0,0,0,0.00
2013-6-14,-200,0,200,100,100,100,0,0,100,0.00,40.00,0,0,0,0.00
2013-6-15,-200,0,200,100,100,100,0,0,100,0.00,40.00,0,0,0,0.00
2013-6-16,-200,0,200,100,100,100,0,0,100,0.00,40.00,0,0,0,0.00
2013-6-17,-200,0,200,100,100,100,0,0,100,0.00,40.00,0,0,0,0.00
2013-6-18,-200,0,200,100,100,100,0,0,100,0.00,40.00,0,0,0,0.00
2013-6-19,46,1,46,100,99,40,78,1,77,30.21,30.20,0,0,0,0.00
2013-6-20,74,58,41,53,45,33,96,66,23,30.30,30.20,8,0,13,0.00
2013-6-21,80,65,50,58,51,41,97,65,31,30.28,30.23,5,0,10,0.00
2013-6-22,80,68,54,64,58,50,98,75,47,30.24,30.11,7,0,14,0.00
2013-6-23,86,76,64,71,66,61,91,72,52,30.14,29.97,10,1,14,0.00
2013-6-24,84,73,63,72,66,61,96,80,58,30.01,29.90,6,0,16,0.00
2013-6-25,83,72,65,70,65,60,96,80,55,29.94,29.75,6,0,15,0.00
2013-6-26,74,68,62,67,65,61,97,90,76,29.84,29.72,6,0,12,0.00
2013-6-27,78,68,58,69,64,58,100,87,65,29.84,29.68,4,0,10,0.00
2013-6-28,77,66,60,68,63,59,100,91,66,29.68,29.45,5,0,13,0.00
2013-6-29,78,69,62,67,63,60,99,82,54,29.69,29.48,10,0,17,0.00
2013-6-30,79,70,63,68,64,61,97,84,62,29.92,29.69,4,0,17,0.00
2013-7-1,72,67,63,69,66,63,99,97,90,30.05,29.92,0,0,4,0.00
2013-7-2,80,71,67,72,69,67,99,94,73,30.14,30.03,7,0,11,0.00
2013-7-3,81,73,68,71,69,67,98,86,68,30.19,30.12,7,0,16,0.00
2013-7-4,86,76,68,72,69,66,97,80,57,30.20,30.08,8,0,15,0.00
2013-7-5,86,78,73,75,71,69,95,80,59,30.14,30.03,6,0,12,0.02
2013-7-19,84,79,68,72,69,65,92,71,64,29.79,29.71,5,0,20,0.00
2013-7-20,80,72,62,69,65,60,94,77,63,29.82,29.67,10,1,19,0.08
2013-7-21,78,68,58,64,60,57,96,78,56,30.01,29.82,4,0,8,0.00
2013-7-22,78,68,59,67,63,57,98,87,64,30.01,29.86,5,0,10,0.05
2013-7-23,76,68,63,71,65,62,99,92,73,29.86,29.56,7,0,11,2.15
2013-7-24,73,65,52,64,59,46,98,82,58,29.99,29.60,7,1,17,0.00
2013-7-25,67,58,48,58,51,44,89,78,65,30.13,29.98,5,0,12,0.00
2013-7-26,70,62,55,60,55,50,90,80,55,30.11,30.01,5,0,9,0.00
2013-7-27,78,64,50,63,56,49,98,78,45,30.08,29.99,9,0,10,0.00
2013-7-28,74,65,58,67,62,56,100,92,71,30.01,29.96,1,0,6,0.13
2013-7-29,78,67,62,66,61,52,99,81,54,30.08,29.97,3,0,13,0.05
2013-7-30,73,64,54,59,55,51,93,74,55,30.13,30.06,5,0,7,0.00
2013-7-31,77,64,53,60,56,52,98,78,48,30.16,30.05,1,0,8,0.00
2013-8-1,70,60,52,64,58,51,98,93,77,30.06,29.87,6,0,11,0.17
2013-8-2,75,66,59,61,58,54,98,78,50,29.87,29.80,6,0,15,0.01
2013-8-3,73,64,54,60,55,52,97,76,50,29.87,29.80,11,0,14,0.00
2013-8-4,71,61,56,58,53,49,93,75,54,29.93,29.82,8,1,19,0.06
2013-8-5,69,58,48,50,47,43,93,70,43,30.09,29.92,8,0,14,0.00
2013-8-6,71,58,45,56,50,43,97,77,50,30.17,30.09,2,0,9,0.00
2013-8-7,73,63,54,61,57,52,97,82,54,30.18,30.08,7,0,11,0.00
2013-8-8,76,68,62,69,65,61,98,91,76,30.08,29.99,7,0,10,0.02
2013-8-9,71,69,66,70,68,66,98,96,92,30.00,29.76,5,0,9,1.14
2013-8-10,73,66,53,66,56,49,92,73,46,30.04,29.80,8,1,14,0.00
2013-8-11,72,58,46,56,51,45,98,79,51,30.12,30.04,4,0,8,0.00
2013-8-12,74,64,53,60,56,52,97,77,50,30.07,29.94,6,0,11,0.00
2013-8-13,70,62,58,66,61,57,98,94,82,29.94,29.69,4,0,7,1.06
2013-8-14,64,56,51,60,51,48,97,84,68,30.01,29.70,11,1,19,0.02
2013-8-15,67,56,44,53,49,43,98,79,54,30.15,30.00,8,0,13,0.00
2013-8-16,71,60,49,55,51,48,97,76,50,30.23,30.13,6,0,11,0.00
2013-8-17,73,61,51,63,55,48,100,82,56,30.31,30.23,0,0,2,0.00
2013-8-18,71,61,52,62,55,50,98,84,60,30.30,30.18,0,0,1,0.02
2013-8-19,76,66,54,62,57,53,97,76,52,30.11,30.00,7,0,11,0.00
2013-8-20,78,67,56,63,58,53,94,75,52,30.13,30.02,8,0,9,0.00
2013-8-21,80,69,59,64,60,57,94,77,49,30.17,30.04,3,0,10,0.00
2013-8-22,80,71,59,66,62,58,98,77,51,30.05,29.82,5,0,12,0.00
2013-8-23,70,62,53,63,54,45,95,76,50,30.17,29.85,7,0,9,0.00
2013-8-24,75,60,48,58,50,45,96,72,36,30.37,30.17,2,0,6,0.00
2013-8-25,75,61,47,58,52,45,98,76,43,30.40,30.19,3,0,10,0.00
2013-8-26,74,66,60,66,61,55,97,84,75,30.20,29.89,10,1,19,0.00
2013-8-27,80,68,62,68,65,62,98,90,64,29.92,29.85,1,0,5,0.00
2013-8-28,80,69,59,69,64,58,99,87,59,29.99,29.86,2,0,8,0.00
2013-8-29,69,63,58,64,61,57,98,94,82,30.06,29.95,1,0,8,0.00
2013-8-30,81,69,60,66,63,59,100,83,55,30.03,29.82,4,0,10,0.00
2013-8-31,76,69,64,72,67,62,99,94,84,29.82,29.75,6,0,21,0.00
2013-9-1,74,69,65,72,67,64,98,93,83,29.86,29.79,1,0,8,0.00
2013-9-2,76,68,62,70,66,61,99,95,82,29.84,29.69,5,0,12,0.00
2013-9-3,69,63,59,62,59,54,98,87,67,29.84,29.70,7,0,11,0.00
2013-9-4,71,63,58,58,54,51,92,75,61,29.94,29.83,8,1,17,0.00
2013-9-5,63,57,47,58,48,38,92,71,43,30.17,29.87,7,0,15,0.00
2013-9-6,64,50,37,46,40,36,97,72,42,30.28,30.12,6,0,12,0.04
2013-9-7,69,59,50,53,46,38,82,62,33,30.12,29.85,14,0,15,0.00
2013-9-8,61,56,42,57,48,39,96,77,50,30.14,29.78,10,1,14,0.00
2013-9-9,65,51,36,51,43,35,97,77,43,30.27,30.13,2,0,10,0.00
2013-9-10,76,66,54,71,62,51,97,89,73,30.15,30.03,10,1,17,0.25
2013-9-11,88,78,66,73,70,60,94,77,54,30.06,29.90,8,1,22,0.51
2013-9-12,76,68,62,72,65,61,98,92,67,29.92,29.65,5,0,14,1.12
2013-9-13,64,59,50,62,57,47,98,93,84,29.81,29.60,6,0,13,0.08
2013-9-14,55,51,47,50,47,45,94,88,78,30.10,29.81,8,1,11,0.00
2013-9-15,63,51,39,51,46,38,98,83,54,30.21,30.08,6,0,8,0.00
2013-9-16,58,50,40,52,45,33,93,82,66,30.30,30.04,5,0,11,0.02
2013-9-17,61,47,39,46,38,33,100,73,47,30.49,30.30,6,0,10,0.00
2013-9-18,71,53,38,48,43,36,97,74,33,30.39,30.20,6,0,7,0.00
2013-9-19,76,57,45,53,48,43,96,75,37,30.20,30.08,4,0,6,0.00
2013-9-20,75,58,46,58,51,44,98,80,41,30.13,30.01,5,0,10,0.00
2013-9-21,68,58,48,61,55,47,98,90,63,30.01,29.67,14,1,17,0.13
2013-9-22,62,53,45,61,49,41,98,84,65,29.89,29.60,10,1,15,0.71
2013-9-23,53,45,40,42,39,37,91,81,64,30.07,29.88,9,1,14,0.00
2013-9-24,59,47,40,44,39,36,90,75,46,30.06,29.91,10,1,18,0.00
2013-9-25,66,53,43,51,46,40,94,77,57,30.02,29.93,7,0,9,0.00
2013-9-26,61,51,46,49,45,42,96,82,57,30.19,30.02,5,0,6,0.00
2013-9-27,55,50,45,50,47,44,97,89,79,30.33,30.18,0,0,6,0.00
2013-9-28,68,54,45,55,49,44,99,84,54,30.40,30.31,1,0,4,0.00
2013-9-29,67,53,42,55,48,41,99,85,56,30.29,30.13,2,0,7,0.00
2013-9-30,68,52,40,55,47,39,100,85,51,30.15,30.02,3,0,6,0.00
2013-10-1,72,58,43,57,51,42,98,80,56,30.04,29.93,8,0,15,0.00
2013-10-2,69,63,52,60,56,49,91,77,71,30.00,29.88,14,2,21,0.00
2013-10-3,72,59,47,52,44,34,88,61,27,30.12,29.99,6,0,14,0.00
2013-10-4,57,53,51,56,51,43,98,92,71,30.11,30.06,0,0,2,0.62
2013-10-5,58,56,53,58,55,52,99,97,88,30.14,30.09,0,0,1,0.09
2013-10-6,56,51,48,55,51,48,100,98,98,30.19,30.12,6,0,9,0.12
2013-10-7,65,55,49,64,54,46,99,96,83,30.14,29.74,12,2,22,0.76
2013-10-8,56,48,38,46,39,35,94,73,47,30.42,29.93,9,1,23,0.00
2013-10-9,58,45,35,42,37,33,97,76,42,30.54,30.41,5,0,6,0.00
2013-10-10,60,48,35,44,36,22,97,67,23,30.42,30.24,0,0,2,0.00
2013-10-11,67,56,47,45,33,22,74,45,18,30.24,30.15,4,0,4,0.00
2013-10-12,59,53,48,51,47,38,100,83,55,30.40,30.20,5,0,8,0.00
2013-10-13,59,50,43,48,46,42,98,86,62,30.47,30.39,4,0,7,0.00
2013-10-14,66,54,42,53,47,41,98,81,55,30.40,30.27,5,0,11,0.00
2013-10-15,58,55,51,54,52,49,95,90,83,30.29,30.17,1,0,4,0.00
2013-10-16,58,51,48,51,48,43,98,88,72,30.17,29.91,6,0,10,0.00
2013-10-17,63,56,50,55,49,44,97,79,51,29.91,29.68,19,1,20,0.05
2013-10-18,57,52,48,56,44,34,98,77,53,29.92,29.59,18,5,24,0.21
2013-10-19,59,50,38,45,40,36,94,71,50,29.98,29.73,8,1,18,0.01
2013-10-20,50,45,41,45,37,33,89,74,57,30.05,29.69,12,3,24,0.01
2013-10-21,61,48,36,40,37,33,91,67,42,30.14,29.97,8,1,17,0.00
2013-10-22,52,45,40,47,40,29,91,80,62,29.97,29.75,11,2,16,0.09
2013-10-23,44,40,32,33,31,27,89,71,51,29.81,29.64,9,1,19,0.00
2013-10-24,41,36,32,32,29,25,85,76,58,29.93,29.71,12,4,33,0.00
2013-10-25,39,36,32,32,28,25,88,75,58,30.16,29.93,12,3,21,0.00
2013-10-26,44,39,35,33,29,24,89,67,47,30.17,29.86,15,2,23,0.00
2013-10-27,42,39,36,33,31,28,82,72,59,30.08,29.80,15,3,22,0.00
2013-10-28,46,38,29,35,29,20,84,70,51,30.38,30.07,14,3,20,0.00
2013-10-29,40,30,22,24,20,16,92,67,37,30.49,30.38,7,0,11,0.00
2013-10-30,44,35,27,37,31,22,99,85,75,30.41,30.26,8,1,17,0.03
2013-10-31,57,44,33,56,43,32,100,96,92,30.29,29.77,13,1,21,0.86
2013-11-1,62,58,49,59,51,40,95,80,56,29.76,29.41,21,5,34,1.35
2013-11-2,55,47,38,44,40,35,94,78,57,29.80,29.59,8,2,18,0.03
2013-11-3,38,31,26,35,22,13,92,70,48,30.49,29.80,12,4,15,0.00
2013-11-4,36,28,22,18,14,9,80,58,32,30.74,30.49,10,1,11,0.00
2013-11-5,45,33,23,34,25,17,85,73,57,30.75,30.54,8,1,11,0.00
2013-11-6,53,45,35,46,40,33,96,82,66,30.54,30.01,16,2,22,0.00
2013-11-7,54,46,32,50,40,20,95,83,58,30.02,29.72,22,4,23,0.39
2013-11-8,36,32,29,31,25,20,95,76,60,30.12,29.83,15,4,22,0.00
2013-11-9,35,31,27,29,24,19,89,74,60,30.26,30.01,18,2,31,0.00
2013-11-10,43,37,31,37,33,28,93,85,73,30.01,29.79,20,3,26,0.17
2013-11-11,39,36,31,32,27,24,81,71,60,30.11,29.92,15,4,29,0.00
2013-11-12,37,25,20,33,19,14,92,77,65,30.24,29.92,13,4,20,0.01
2013-11-13,28,22,15,19,13,9,82,70,50,30.36,30.17,17,3,23,0.00
2013-11-14,44,36,28,26,18,10,69,49,26,30.17,30.09,22,6,32,0.00
2013-11-15,55,44,38,22,14,7,49,30,14,30.21,30.12,19,2,23,0.00
2013-11-16,54,45,35,31,26,17,84,50,32,30.33,30.19,7,1,13,0.00
2013-11-17,52,43,33,52,42,30,100,94,79,30.31,29.81,5,0,11,0.21
2013-11-18,55,49,35,54,41,27,99,75,50,29.80,29.53,19,4,30,0.59
2013-11-19,35,29,22,28,20,14,84,71,60,30.37,29.67,20,6,33,0.00
2013-11-20,34,25,18,17,14,10,82,64,38,30.70,30.36,8,1,14,0.00
2013-11-21,42,30,17,32,19,5,87,65,23,30.70,30.42,7,0,13,0.00
2013-11-22,44,39,35,42,37,31,98,93,78,30.42,29.87,14,1,21,0.07
2013-11-23,41,29,19,38,21,7,92,72,52,29.97,29.80,21,5,29,0.00
2013-11-24,19,13,8,13,3,-1,89,66,50,30.29,29.84,19,8,29,0.00
2013-11-25,27,17,7,14,6,-7,75,62,39,30.45,30.29,15,2,21,0.00
2013-11-26,31,27,24,29,24,9,96,86,48,30.34,30.07,14,1,23,0.00
2013-11-27,42,35,28,42,33,25,98,94,83,30.07,29.36,21,3,28,1.48
2013-11-28,28,19,14,25,12,6,89,73,54,30.47,29.50,15,4,26,0.00
2013-11-29,22,16,8,12,9,5,88,72,50,30.80,30.47,11,2,15,0.00
2013-11-30,23,15,3,17,6,0,91,71,46,30.86,30.49,8,1,12,0.00
2013-12-1,38,32,23,30,28,17,93,85,71,30.48,30.07,11,1,19,0.02
2013-12-2,36,32,29,33,31,28,96,93,89,30.07,29.94,1,0,5,0.00
2013-12-3,41,33,27,35,30,26,97,89,74,30.00,29.93,5,0,11,0.00
2013-12-4,45,33,26,34,27,23,95,80,53,30.22,29.99,8,0,13,0.00
2013-12-5,51,40,29,51,39,27,99,96,90,30.22,29.95,5,0,15,0.01
2013-12-6,52,38,29,52,35,27,99,90,75,30.14,29.89,8,2,20,0.03
2013-12-7,29,26,21,27,19,11,92,74,60,30.48,30.09,15,4,24,0.01
2013-12-8,24,21,18,14,12,10,75,68,59,30.61,30.47,7,1,13,0.00
2013-12-9,35,26,18,34,24,14,98,91,75,30.51,29.93,15,2,29,0.14
2013-12-10,32,24,17,27,19,10,91,80,69,29.99,29.81,15,4,28,0.04
2013-12-11,21,19,16,17,12,7,92,76,65,30.21,29.99,21,4,33,0.01
2013-12-12,16,12,8,12,4,-1,88,70,52,30.31,30.06,12,2,20,0.00
2013-12-13,18,14,2,14,8,-2,92,77,57,30.41,29.99,13,3,19,0.00
2013-12-14,10,5,1,8,-1,-8,89,76,46,30.61,30.24,7,0,11,0.19
2013-12-15,27,19,10,24,16,7,92,88,81,30.24,29.58,16,3,30,0.08
2013-12-16,20,14,6,17,7,0,88,73,65,30.21,29.76,15,5,35,0.00
2013-12-17,15,6,-4,100,26,-4,91,87,74,30.27,30.09,4,0,5,0.00
2013-12-18,24,20,14,19,17,12,98,85,79,30.09,30.01,14,3,19,0.00
2013-12-19,36,30,24,30,22,16,92,73,60,30.13,30.00,17,5,25,0.24
2013-12-20,47,40,32,44,34,28,92,81,63,30.13,29.92,11,2,24,0.04
2013-12-21,57,50,46,52,47,43,98,89,71,29.93,29.83,15,2,23,0.40
2013-12-22,61,56,49,57,53,48,98,90,75,29.91,29.69,15,2,32,0.18
2013-12-23,53,43,29,52,41,23,98,92,79,30.11,29.89,15,2,20,0.16
2013-12-24,28,22,12,23,15,5,87,74,57,30.25,30.09,19,3,24,0.00
2013-12-25,18,12,4,6,3,-2,80,68,52,30.55,30.25,13,2,22,0.00
2013-12-26,25,21,13,23,16,5,92,84,68,30.50,30.15,17,2,19,0.05
2013-12-27,26,23,19,21,18,14,87,80,69,30.29,30.22,17,4,32,0.00
2013-12-28,40,34,25,32,27,20,84,73,62,30.22,30.02,23,5,28,0.00
2013-12-29,45,37,33,35,30,26,96,80,50,30.05,29.57,11,0,17,1.09
2013-12-30,37,22,5,35,17,2,96,83,74,30.16,29.60,19,4,31,0.02
2013-12-31,17,10,1,15,5,-1,92,82,72,30.22,30.06,23,2,27,0.00
2014-1-1,15,12,10,9,6,3,89,79,71,30.42,30.21,12,2,18,0.00
2014-1-2,11,7,2,8,4,-1,89,86,82,30.39,29.94,6,1,10,1.15